Time;durP1;ratioP1;P1;durP2;ratioP2;P2;SDS_P1;SDS_P2;PMS_P1;PMS_P2;Temp;Humidity;BMP_temperature;BMP_pressure;BME280_temperature;BME280_humidity;BME280_pressure;Samples;Min_cycle;Max_cycle;Signal;HPM_P1;HPM_P2
2024/03/31 00:00:30;;;;;;;8.93;7.78;;;;;;;;;;5021178;28;20128;-74
2024/03/31 00:02:56;;;;;;;5.82;5.28;;;;;;;;;;5022765;28;20028;-74
2024/03/31 00:05:21;;;;;;;5.95;5.05;;;;;;;;;;5019237;28;20068;-72
2024/03/31 00:07:47;;;;;;;3.53;2.83;;;;;;;;;;5004075;28;20046;-74
2024/03/31 00:10:12;;;;;;;6.88;5.25;;;;;;;;;;5021827;28;20234;-75
2024/03/31 00:12:38;;;;;;;10.15;7.90;;;;;;;;;;5024626;28;20111;-72
2024/03/31 00:15:03;;;;;;;6.63;6.03;;;;;;;;;;5022993;28;20077;-73
2024/03/31 00:17:29;;;;;;;5.10;4.30;;;;;;;;;;5026040;28;20544;-72
2024/03/31 00:19:54;;;;;;;2.72;2.47;;;;;;;;;;5019398;28;20528;-73
2024/03/31 00:22:19;;;;;;;7.20;6.43;;;;;;;;;;5006323;28;20033;-73
2024/03/31 00:24:45;;;;;;;5.78;3.88;;;;;;;;;;5021198;28;20103;-75
2024/03/31 00:27:10;;;;;;;3.45;3.17;;;;;;;;;;5017359;28;20033;-74
2024/03/31 00:29:36;;;;;;;3.22;2.95;;;;;;;;;;5001167;28;20127;-73
2024/03/31 00:32:02;;;;;;;3.88;2.90;;;;;;;;;;5022536;28;20050;-75
2024/03/31 00:34:27;;;;;;;13.27;2.70;;;;;;;;;;5013485;28;20049;-74
2024/03/31 00:36:52;;;;;;;3.00;2.58;;;;;;;;;;5021314;28;20095;-73
2024/03/31 00:39:18;;;;;;;5.13;3.33;;;;;;;;;;5013528;28;20058;-77
2024/03/31 00:41:43;;;;;;;2.33;2.13;;;;;;;;;;5018858;28;20045;-74
2024/03/31 00:44:09;;;;;;;8.00;3.15;;;;;;;;;;5018555;28;20025;-73
2024/03/31 00:46:34;;;;;;;4.10;2.67;;;;;;;;;;5016879;28;20046;-73
2024/03/31 00:48:59;;;;;;;2.63;2.05;;;;;;;;;;5019656;28;20042;-73
2024/03/31 00:51:25;;;;;;;14.63;4.93;;;;;;;;;;5020462;28;20108;-73
2024/03/31 00:53:50;;;;;;;5.40;2.65;;;;;;;;;;5020617;28;20048;-72
2024/03/31 00:56:16;;;;;;;3.40;2.40;;;;;;;;;;5018802;28;20037;-74
2024/03/31 00:58:42;;;;;;;4.63;3.22;;;;;;;;;;5024650;28;20038;-73
2024/03/31 01:01:08;;;;;;;2.28;1.95;;;;;;;;;;5023725;28;20045;-71
2024/03/31 01:03:34;;;;;;;3.38;3.08;;;;;;;;;;5025065;28;20490;-73
2024/03/31 01:06:04;;;;;;;4.95;4.05;;;;;;;;;;5025493;28;20045;-73
2024/03/31 01:08:29;;;;;;;8.15;5.03;;;;;;;;;;5024776;28;20032;-72
2024/03/31 01:10:55;;;;;;;6.88;4.40;;;;;;;;;;5026185;28;20042;-73
2024/03/31 01:13:21;;;;;;;3.78;2.67;;;;;;;;;;5024506;28;20045;-73
2024/03/31 01:15:47;;;;;;;5.32;4.72;;;;;;;;;;5020889;28;20120;-73
2024/03/31 01:18:12;;;;;;;4.35;3.50;;;;;;;;;;5021613;28;20052;-74
2024/03/31 01:20:38;;;;;;;6.03;4.03;;;;;;;;;;5024958;28;20167;-74
2024/03/31 01:23:04;;;;;;;7.18;3.50;;;;;;;;;;5024457;28;20041;-74
2024/03/31 01:25:36;;;;;;;6.82;4.85;;;;;;;;;;5023506;28;20044;-74
2024/03/31 01:28:01;;;;;;;3.83;3.13;;;;;;;;;;5022912;28;20728;-73
2024/03/31 01:30:27;;;;;;;2.58;2.38;;;;;;;;;;5024655;28;20045;-72
2024/03/31 01:32:52;;;;;;;8.82;5.03;;;;;;;;;;5024945;28;20048;-72
2024/03/31 01:35:17;;;;;;;7.45;4.07;;;;;;;;;;5027697;28;20124;-74
2024/03/31 01:37:48;;;;;;;5.38;4.30;;;;;;;;;;5026255;28;20042;-72
2024/03/31 01:40:13;;;;;;;8.93;4.13;;;;;;;;;;5023145;28;20095;-74
2024/03/31 01:42:38;;;;;;;2.65;2.42;;;;;;;;;;5025428;28;20045;-73
2024/03/31 01:45:04;;;;;;;7.38;3.13;;;;;;;;;;5025083;28;20049;-72
2024/03/31 01:47:29;;;;;;;3.35;3.05;;;;;;;;;;5010348;28;20025;-72
2024/03/31 01:49:55;;;;;;;16.23;3.45;;;;;;;;;;5023260;28;20037;-73
2024/03/31 01:52:20;;;;;;;5.00;2.03;;;;;;;;;;5021945;28;20593;-72
2024/03/31 01:54:46;;;;;;;5.30;2.88;;;;;;;;;;5023789;28;20034;-72
2024/03/31 01:57:11;;;;;;;3.30;2.97;;;;;;;;;;5024882;28;20568;-75
2024/03/31 01:59:36;;;;;;;3.67;2.78;;;;;;;;;;5011426;28;20108;-74
2024/03/31 02:02:02;;;;;;;7.35;2.55;;;;;;;;;;5023724;28;20042;-73
2024/03/31 02:04:27;;;;;;;5.60;4.25;;;;;;;;;;5024839;28;20072;-74
2024/03/31 02:06:52;;;;;;;3.10;2.47;;;;;;;;;;5024347;28;20525;-73
2024/03/31 02:09:19;;;;;;;2.67;2.47;;;;;;;;;;5022946;28;20081;-72
2024/03/31 02:11:45;;;;;;;5.22;4.38;;;;;;;;;;5025355;28;20103;-72
2024/03/31 02:14:10;;;;;;;5.07;1.48;;;;;;;;;;5009020;28;20374;-73
2024/03/31 02:16:35;;;;;;;6.05;4.00;;;;;;;;;;5022705;28;20117;-71
2024/03/31 02:19:01;;;;;;;2.97;2.35;;;;;;;;;;5025730;28;20072;-71
2024/03/31 02:21:26;;;;;;;3.45;2.92;;;;;;;;;;5023619;28;20478;-71
2024/03/31 02:23:51;;;;;;;2.40;2.20;;;;;;;;;;5024893;28;20021;-71
2024/03/31 02:26:17;;;;;;;2.95;2.75;;;;;;;;;;5027515;28;20540;-71
2024/03/31 02:28:42;;;;;;;2.67;1.50;;;;;;;;;;5026573;28;20042;-72
2024/03/31 02:31:07;;;;;;;3.28;1.95;;;;;;;;;;5024336;28;20437;-73
2024/03/31 02:33:33;;;;;;;2.10;1.92;;;;;;;;;;5021656;28;20038;-72
2024/03/31 02:35:58;;;;;;;10.48;4.10;;;;;;;;;;5025107;28;20076;-71
2024/03/31 02:38:24;;;;;;;6.13;2.47;;;;;;;;;;5024166;28;20041;-73
2024/03/31 02:40:49;;;;;;;6.88;4.32;;;;;;;;;;5020420;28;20091;-72
2024/03/31 02:43:14;;;;;;;2.50;1.63;;;;;;;;;;5019576;28;20045;-74
2024/03/31 02:45:41;;;;;;;3.30;3.05;;;;;;;;;;5021246;28;21780;-73
2024/03/31 02:48:06;;;;;;;3.95;3.08;;;;;;;;;;5023181;28;20108;-72
2024/03/31 02:50:32;;;;;;;5.70;4.10;;;;;;;;;;5023718;28;20722;-73
2024/03/31 02:52:58;;;;;;;2.88;2.55;;;;;;;;;;5025718;28;20048;-73
2024/03/31 02:55:23;;;;;;;5.20;3.75;;;;;;;;;;5024844;28;20394;-74
2024/03/31 02:57:49;;;;;;;6.18;4.68;;;;;;;;;;5023307;28;20037;-72
2024/03/31 03:00:17;;;;;;;2.28;2.10;;;;;;;;;;5025177;28;20034;-71
2024/03/31 03:02:42;;;;;;;5.75;2.85;;;;;;;;;;5020985;28;20032;-71
2024/03/31 03:05:08;;;;;;;4.35;3.55;;;;;;;;;;5021730;28;20033;-73
2024/03/31 03:07:34;;;;;;;3.70;2.92;;;;;;;;;;5019575;28;20060;-72
2024/03/31 03:09:59;;;;;;;5.05;4.32;;;;;;;;;;5019218;28;20049;-72
2024/03/31 03:12:24;;;;;;;3.95;3.60;;;;;;;;;;5023605;28;20037;-72
2024/03/31 03:14:53;;;;;;;4.55;3.72;;;;;;;;;;5022529;28;20071;-73
2024/03/31 03:17:18;;;;;;;4.40;3.25;;;;;;;;;;5016007;28;20048;-72
2024/03/31 03:19:44;;;;;;;6.43;3.42;;;;;;;;;;5019926;28;20121;-73
2024/03/31 03:22:09;;;;;;;5.82;2.70;;;;;;;;;;5004687;28;20041;-74
2024/03/31 03:24:35;;;;;;;6.43;6.07;;;;;;;;;;5021660;28;20453;-73
2024/03/31 03:27:00;;;;;;;3.17;2.15;;;;;;;;;;5023191;28;20056;-72
2024/03/31 03:29:25;;;;;;;3.22;2.97;;;;;;;;;;5024568;28;20481;-73
2024/03/31 03:31:51;;;;;;;1.65;1.42;;;;;;;;;;5020310;28;20053;-73
2024/03/31 03:34:16;;;;;;;3.58;3.28;;;;;;;;;;5019125;28;20663;-72
2024/03/31 03:36:42;;;;;;;2.90;2.22;;;;;;;;;;5019052;28;20044;-72
2024/03/31 03:39:07;;;;;;;11.00;3.55;;;;;;;;;;5017205;28;20523;-72
2024/03/31 03:41:32;;;;;;;3.58;3.30;;;;;;;;;;5003175;28;20103;-73
2024/03/31 03:43:58;;;;;;;4.72;2.92;;;;;;;;;;5017518;28;20037;-72
2024/03/31 03:46:23;;;;;;;4.97;3.78;;;;;;;;;;5001739;28;20090;-73
2024/03/31 03:48:48;;;;;;;9.48;4.10;;;;;;;;;;5001698;28;20045;-72
2024/03/31 03:51:14;;;;;;;0.20;0.20;;;;;;;;;;5022369;28;20057;-72
2024/03/31 03:53:39;;;;;;;3.90;2.90;;;;;;;;;;5022815;28;20021;-73
2024/03/31 03:56:05;;;;;;;1.17;1.08;;;;;;;;;;5016598;28;20095;-73
2024/03/31 03:58:30;;;;;;;2.80;2.60;;;;;;;;;;5021138;28;20042;-74
2024/03/31 04:00:56;;;;;;;0.30;0.30;;;;;;;;;;5017027;28;20044;-73
2024/03/31 04:03:22;;;;;;;3.03;2.70;;;;;;;;;;5017229;28;20095;-74
2024/03/31 04:05:54;;;;;;;9.50;0.40;;;;;;;;;;5016539;28;20049;-72
2024/03/31 04:08:20;;;;;;;3.90;3.40;;;;;;;;;;5017466;28;20033;-73
2024/03/31 04:10:45;;;;;;;6.88;4.30;;;;;;;;;;5020575;28;20528;-72
2024/03/31 04:13:11;;;;;;;2.17;1.98;;;;;;;;;;5022522;28;20507;-74
2024/03/31 04:15:36;;;;;;;4.80;3.30;;;;;;;;;;5022534;28;20041;-74
2024/03/31 04:18:02;;;;;;;0.20;0.20;;;;;;;;;;5017525;28;20674;-74
2024/03/31 04:20:27;;;;;;;3.53;1.75;;;;;;;;;;5022336;28;20032;-72
2024/03/31 04:22:52;;;;;;;3.92;3.30;;;;;;;;;;5001968;28;20037;-75
2024/03/31 04:25:18;;;;;;;3.60;2.78;;;;;;;;;;5014359;28;20056;-72
2024/03/31 04:27:43;;;;;;;2.88;2.67;;;;;;;;;;5018606;28;20037;-72
2024/03/31 04:30:09;;;;;;;1.63;1.45;;;;;;;;;;5016081;28;20049;-75
2024/03/31 04:32:35;;;;;;;3.42;2.47;;;;;;;;;;5019001;28;20047;-74
2024/03/31 04:35:01;;;;;;;2.38;1.85;;;;;;;;;;5025926;28;20049;-72
2024/03/31 04:37:26;;;;;;;20.02;5.20;;;;;;;;;;5021079;28;20540;-74
2024/03/31 04:39:52;;;;;;;1.95;1.85;;;;;;;;;;5018939;28;20043;-74
2024/03/31 04:42:17;;;;;;;3.05;1.50;;;;;;;;;;5022546;28;20599;-75
2024/03/31 04:44:42;;;;;;;4.90;4.43;;;;;;;;;;5025793;28;20043;-73
2024/03/31 04:47:08;;;;;;;3.30;2.22;;;;;;;;;;5027999;28;20425;-75
2024/03/31 04:49:33;;;;;;;0.28;0.28;;;;;;;;;;5009239;28;20048;-73
2024/03/31 04:51:59;;;;;;;2.85;2.65;;;;;;;;;;5020887;28;20104;-73
2024/03/31 04:54:24;;;;;;;3.20;2.00;;;;;;;;;;5023230;28;20486;-73
2024/03/31 04:56:49;;;;;;;0.38;0.38;;;;;;;;;;5027481;28;20044;-73
2024/03/31 04:59:15;;;;;;;1.55;1.40;;;;;;;;;;5027063;28;20049;-73
2024/03/31 05:01:40;;;;;;;3.83;2.53;;;;;;;;;;5024922;28;20029;-75
2024/03/31 05:04:05;;;;;;;0.82;0.82;;;;;;;;;;5028140;28;20466;-73
2024/03/31 05:06:31;;;;;;;6.63;4.57;;;;;;;;;;5022695;28;20478;-72
2024/03/31 05:08:56;;;;;;;4.05;2.45;;;;;;;;;;5028140;28;20108;-74
2024/03/31 05:11:22;;;;;;;5.75;4.35;;;;;;;;;;5006928;28;20042;-74
2024/03/31 05:13:47;;;;;;;42.22;3.80;;;;;;;;;;5024658;28;20912;-74
2024/03/31 05:16:14;;;;;;;3.15;2.83;;;;;;;;;;5029468;28;20499;-74
2024/03/31 05:18:40;;;;;;;2.47;2.28;;;;;;;;;;5029834;28;20038;-73
2024/03/31 05:21:07;;;;;;;3.50;2.28;;;;;;;;;;5026407;28;20033;-75
2024/03/31 05:23:33;;;;;;;3.20;2.97;;;;;;;;;;5027488;28;20124;-72
2024/03/31 05:26:01;;;;;;;3.42;3.08;;;;;;;;;;5024989;28;20103;-72
2024/03/31 05:28:27;;;;;;;2.53;2.17;;;;;;;;;;5028161;28;20042;-73
2024/03/31 05:30:53;;;;;;;3.05;2.75;;;;;;;;;;5026605;28;20053;-72
2024/03/31 05:33:18;;;;;;;4.55;3.60;;;;;;;;;;5026516;28;20052;-75
2024/03/31 05:35:44;;;;;;;2.85;2.15;;;;;;;;;;5026951;28;20025;-76
2024/03/31 05:38:10;;;;;;;7.13;6.10;;;;;;;;;;5028123;28;20036;-77
2024/03/31 05:40:42;;;;;;;4.43;4.03;;;;;;;;;;5021856;28;20048;-72
2024/03/31 05:43:08;;;;;;;4.95;2.97;;;;;;;;;;5022124;28;20057;-74
2024/03/31 05:45:40;;;;;;;1.45;1.35;;;;;;;;;;5021702;28;20041;-73
2024/03/31 05:48:06;;;;;;;15.70;3.00;;;;;;;;;;5024916;28;20401;-73
2024/03/31 05:50:32;;;;;;;1.95;1.67;;;;;;;;;;5022323;28;20474;-74
2024/03/31 05:52:58;;;;;;;3.22;2.97;;;;;;;;;;5024095;28;20498;-73
2024/03/31 05:55:23;;;;;;;6.82;2.25;;;;;;;;;;5007577;28;20080;-74
2024/03/31 05:57:49;;;;;;;3.28;2.58;;;;;;;;;;5022203;28;20038;-73
2024/03/31 06:00:14;;;;;;;0.45;0.45;;;;;;;;;;5020625;28;20059;-75
2024/03/31 06:02:39;;;;;;;5.88;5.38;;;;;;;;;;5008729;28;20025;-73
2024/03/31 06:05:06;;;;;;;12.07;3.45;;;;;;;;;;5021847;28;20057;-73
2024/03/31 06:07:31;;;;;;;3.38;3.15;;;;;;;;;;5022564;28;20045;-73
2024/03/31 06:09:57;;;;;;;2.75;2.28;;;;;;;;;;5020211;28;20058;-73
2024/03/31 06:12:22;;;;;;;1.50;1.38;;;;;;;;;;5020368;28;20044;-73
2024/03/31 06:14:48;;;;;;;4.00;2.38;;;;;;;;;;5021004;28;20022;-75
2024/03/31 06:17:13;;;;;;;7.10;4.88;;;;;;;;;;5021234;28;20041;-73
2024/03/31 06:19:38;;;;;;;0.95;0.73;;;;;;;;;;5020433;28;20033;-75
2024/03/31 06:22:04;;;;;;;3.00;2.33;;;;;;;;;;5018294;28;20116;-70
2024/03/31 06:24:29;;;;;;;1.45;1.15;;;;;;;;;;5021357;28;20473;-72
2024/03/31 06:26:55;;;;;;;2.72;2.53;;;;;;;;;;5019168;28;20075;-71
2024/03/31 06:29:20;;;;;;;1.30;1.20;;;;;;;;;;5001975;28;20480;-71
2024/03/31 06:31:46;;;;;;;2.13;1.92;;;;;;;;;;5025559;28;20041;-70
2024/03/31 06:34:11;;;;;;;6.38;3.90;;;;;;;;;;5020687;28;20044;-70
2024/03/31 06:36:36;;;;;;;5.43;2.70;;;;;;;;;;5025646;28;20052;-70
2024/03/31 06:39:02;;;;;;;1.42;1.23;;;;;;;;;;5025194;28;20766;-71
2024/03/31 06:41:27;;;;;;;2.55;2.15;;;;;;;;;;5025485;28;21452;-71
2024/03/31 06:43:53;;;;;;;1.52;1.42;;;;;;;;;;5025468;28;20033;-71
2024/03/31 06:46:18;;;;;;;3.03;2.60;;;;;;;;;;5025035;28;20867;-72
2024/03/31 06:48:43;;;;;;;2.58;2.00;;;;;;;;;;5021346;28;20397;-73
2024/03/31 06:51:09;;;;;;;4.28;3.78;;;;;;;;;;5020082;28;20057;-72
2024/03/31 06:53:34;;;;;;;2.55;2.15;;;;;;;;;;5024077;28;20112;-72
2024/03/31 06:55:59;;;;;;;2.22;1.65;;;;;;;;;;5019518;28;20033;-74
2024/03/31 06:58:25;;;;;;;1.55;1.45;;;;;;;;;;5020378;28;20040;-74
2024/03/31 07:00:55;;;;;;;0.68;0.65;;;;;;;;;;5023178;28;20041;-74
2024/03/31 07:03:20;;;;;;;2.60;1.90;;;;;;;;;;5022270;28;20037;-73
2024/03/31 07:05:46;;;;;;;11.48;2.85;;;;;;;;;;5007054;28;20056;-73
2024/03/31 07:08:11;;;;;;;2.20;2.00;;;;;;;;;;5019772;28;20588;-75
2024/03/31 07:10:36;;;;;;;2.67;2.42;;;;;;;;;;5022151;28;20054;-74
2024/03/31 07:13:02;;;;;;;4.63;1.95;;;;;;;;;;5022748;28;20083;-74
2024/03/31 07:15:27;;;;;;;2.63;1.02;;;;;;;;;;5024685;28;20428;-74
2024/03/31 07:17:53;;;;;;;1.52;1.40;;;;;;;;;;5024076;28;20080;-73
2024/03/31 07:20:18;;;;;;;2.08;1.55;;;;;;;;;;5024044;28;20396;-74
2024/03/31 07:22:43;;;;;;;3.05;2.20;;;;;;;;;;5015705;28;21373;-75
2024/03/31 07:25:09;;;;;;;4.30;3.50;;;;;;;;;;5012404;28;20041;-74
2024/03/31 07:27:34;;;;;;;1.40;1.30;;;;;;;;;;5013921;28;20128;-88
2024/03/31 07:29:59;;;;;;;0.90;0.70;;;;;;;;;;5019430;28;20060;-83
2024/03/31 07:32:43;;;;;;;1.05;0.28;;;;;;;;;;5023264;28;20477;-79
2024/03/31 07:35:23;;;;;;;;;;;;;;;;;;5018881;28;20050;-82
2024/03/31 07:38:01;;;;;;;5.97;2.83;;;;;;;;;;5015654;28;19967;-79
2024/03/31 07:40:50;;;;;;;2.67;1.90;;;;;;;;;;5001030;28;20114;-79
2024/03/31 07:43:36;;;;;;;1.00;0.95;;;;;;;;;;5021974;28;20061;-78
2024/03/31 07:46:26;;;;;;;3.05;2.22;;;;;;;;;;5017081;28;20162;-79
2024/03/31 07:49:10;;;;;;;0.95;0.85;;;;;;;;;;5000816;28;20042;-79
2024/03/31 07:51:46;;;;;;;2.92;2.33;;;;;;;;;;5020693;28;20029;-80
2024/03/31 07:54:13;;;;;;;3.58;1.60;;;;;;;;;;4999556;28;20930;-81
2024/03/31 07:57:01;;;;;;;3.78;2.95;;;;;;;;;;5020934;28;20033;-79
2024/03/31 07:59:53;;;;;;;2.30;1.58;;;;;;;;;;5022285;28;20112;-80
2024/03/31 08:02:21;;;;;;;1.77;1.33;;;;;;;;;;5013658;28;20132;-88
2024/03/31 08:04:47;;;;;;;3.55;1.85;;;;;;;;;;5015974;28;20575;-81
2024/03/31 08:07:12;;;;;;;4.43;2.30;;;;;;;;;;5025541;28;20049;-82
2024/03/31 08:09:38;;;;;;;0.45;0.45;;;;;;;;;;5022102;28;20084;-83
2024/03/31 08:12:03;;;;;;;3.88;2.70;;;;;;;;;;5012683;28;20061;-86
2024/03/31 08:14:29;;;;;;;7.32;3.05;;;;;;;;;;5025031;28;20383;-83
2024/03/31 08:16:54;;;;;;;1.40;0.85;;;;;;;;;;5020434;28;20096;-83
2024/03/31 08:19:19;;;;;;;1.48;1.38;;;;;;;;;;5034279;28;20187;-86
2024/03/31 08:21:45;;;;;;;1.15;1.10;;;;;;;;;;5028294;28;20037;-86
2024/03/31 08:24:10;;;;;;;3.22;2.42;;;;;;;;;;5028324;28;20133;-81
2024/03/31 08:26:38;;;;;;;2.15;1.98;;;;;;;;;;5032631;28;20020;-75
2024/03/31 08:29:04;;;;;;;3.15;2.85;;;;;;;;;;5028330;28;20400;-74
2024/03/31 08:31:31;;;;;;;3.40;1.83;;;;;;;;;;5026728;28;20053;-74
2024/03/31 08:33:56;;;;;;;1.83;1.73;;;;;;;;;;5022721;28;20055;-74
2024/03/31 08:36:21;;;;;;;3.75;2.22;;;;;;;;;;5024557;28;20131;-81
2024/03/31 08:39:09;;;;;;;3.40;2.50;;;;;;;;;;5002349;28;20022;-76
2024/03/31 08:42:12;;;;;;;14.25;2.35;;;;;;;;;;5025997;28;20040;-76
2024/03/31 08:44:46;;;;;;;1.88;1.30;;;;;;;;;;5007084;28;20166;-76
2024/03/31 08:47:27;;;;;;;0.47;0.47;;;;;;;;;;5034349;28;20153;-77
2024/03/31 08:49:54;;;;;;;4.32;2.92;;;;;;;;;;5020030;28;20048;-74
2024/03/31 08:52:20;;;;;;;1.65;1.45;;;;;;;;;;5007830;28;20049;-74
2024/03/31 08:54:46;;;;;;;0.70;0.70;;;;;;;;;;5020530;28;20068;-76
2024/03/31 08:57:11;;;;;;;0.43;0.43;;;;;;;;;;5005837;28;21156;-73
2024/03/31 08:59:38;;;;;;;0.98;0.80;;;;;;;;;;5023543;28;20440;-74
2024/03/31 09:02:04;;;;;;;1.70;1.45;;;;;;;;;;5020892;28;20560;-75
2024/03/31 09:04:29;;;;;;;3.83;1.75;;;;;;;;;;5002673;28;20037;-75
2024/03/31 09:06:55;;;;;;;1.15;0.98;;;;;;;;;;5020129;28;20046;-72
2024/03/31 09:09:23;;;;;;;2.80;2.60;;;;;;;;;;5019461;28;20088;-74
2024/03/31 09:11:49;;;;;;;2.70;2.13;;;;;;;;;;5022816;28;20048;-74
2024/03/31 09:14:14;;;;;;;0.93;0.93;;;;;;;;;;5006543;28;20033;-72
2024/03/31 09:16:43;;;;;;;0.40;0.40;;;;;;;;;;5029090;28;20079;-73
2024/03/31 09:19:09;;;;;;;1.25;1.15;;;;;;;;;;5023762;28;20033;-74
2024/03/31 09:21:42;;;;;;;0.90;0.90;;;;;;;;;;5019629;28;20033;-73
2024/03/31 09:24:07;;;;;;;0.90;0.75;;;;;;;;;;5020719;28;20050;-78
2024/03/31 09:26:36;;;;;;;1.55;0.85;;;;;;;;;;5019613;28;21544;-77
2024/03/31 09:29:31;;;;;;;0.30;0.30;;;;;;;;;;5017154;28;20042;-76
2024/03/31 09:32:05;;;;;;;0.50;0.45;;;;;;;;;;5025082;28;20049;-75
2024/03/31 09:34:31;;;;;;;2.33;1.23;;;;;;;;;;5008345;28;20048;-73
2024/03/31 09:36:56;;;;;;;1.85;1.20;;;;;;;;;;5020963;28;20877;-73
2024/03/31 09:39:22;;;;;;;1.55;1.45;;;;;;;;;;5019887;28;20048;-73
2024/03/31 09:41:49;;;;;;;1.00;0.88;;;;;;;;;;5025987;28;20140;-74
2024/03/31 09:44:15;;;;;;;2.60;1.83;;;;;;;;;;5028454;28;20024;-73
2024/03/31 09:46:40;;;;;;;0.50;0.50;;;;;;;;;;5020137;28;20049;-74
2024/03/31 09:49:07;;;;;;;1.95;0.95;;;;;;;;;;5021608;28;20107;-74
2024/03/31 09:51:39;;;;;;;4.78;1.95;;;;;;;;;;5019935;28;20148;-73
2024/03/31 09:54:33;;;;;;;1.23;1.13;;;;;;;;;;5017685;28;20053;-73
2024/03/31 09:57:04;;;;;;;1.48;1.38;;;;;;;;;;4994825;28;20048;-74
2024/03/31 09:59:38;;;;;;;0.20;0.20;;;;;;;;;;5032497;28;20077;-72
2024/03/31 10:02:05;;;;;;;1.95;1.30;;;;;;;;;;5022982;28;20041;-72
2024/03/31 10:04:39;;;;;;;0.45;0.30;;;;;;;;;;5022762;28;20045;-74
2024/03/31 10:07:05;;;;;;;0.45;0.45;;;;;;;;;;5014205;28;20549;-76
2024/03/31 10:09:31;;;;;;;1.85;1.52;;;;;;;;;;5020167;28;20048;-74
2024/03/31 10:11:57;;;;;;;0.20;0.20;;;;;;;;;;5016725;28;20045;-73
2024/03/31 10:14:25;;;;;;;0.75;0.55;;;;;;;;;;5004730;28;20540;-76
2024/03/31 10:16:51;;;;;;;8.45;3.50;;;;;;;;;;5024390;28;20046;-73
2024/03/31 10:19:16;;;;;;;1.77;1.13;;;;;;;;;;5027020;28;20045;-76
2024/03/31 10:21:43;;;;;;;1.23;1.13;;;;;;;;;;5031852;28;20041;-73
2024/03/31 10:24:10;;;;;;;0.88;0.82;;;;;;;;;;5016454;28;20608;-72
2024/03/31 10:26:37;;;;;;;1.33;1.23;;;;;;;;;;5030387;28;20432;-73
2024/03/31 10:29:02;;;;;;;1.38;1.27;;;;;;;;;;5027237;28;20037;-74
2024/03/31 10:31:28;;;;;;;1.08;1.00;;;;;;;;;;4991570;28;20045;-72
2024/03/31 10:33:53;;;;;;;1.55;1.38;;;;;;;;;;5016891;28;20041;-73
2024/03/31 10:36:29;;;;;;;0.63;0.40;;;;;;;;;;5019565;28;20045;-77
2024/03/31 10:39:02;;;;;;;1.08;0.98;;;;;;;;;;5018264;28;20871;-72
2024/03/31 10:41:29;;;;;;;0.55;0.55;;;;;;;;;;5001251;28;20674;-73
2024/03/31 10:43:55;;;;;;;1.38;1.27;;;;;;;;;;5024714;28;20090;-73
2024/03/31 10:46:21;;;;;;;1.13;1.02;;;;;;;;;;5022877;28;20041;-74
2024/03/31 10:48:56;;;;;;;2.85;1.75;;;;;;;;;;5029293;28;20037;-74
2024/03/31 10:51:25;;;;;;;0.50;0.50;;;;;;;;;;5020835;28;20080;-79
2024/03/31 10:53:52;;;;;;;14.38;2.53;;;;;;;;;;5024759;28;20497;-77
2024/03/31 10:56:27;;;;;;;1.23;1.13;;;;;;;;;;5025606;28;20508;-78
2024/03/31 10:59:03;;;;;;;2.35;1.77;;;;;;;;;;5012703;28;20048;-81
2024/03/31 11:01:30;;;;;;;1.10;1.08;;;;;;;;;;5022213;28;20053;-77
2024/03/31 11:03:55;;;;;;;0.70;0.70;;;;;;;;;;5006223;28;20511;-78
2024/03/31 11:06:21;;;;;;;0.55;0.55;;;;;;;;;;5017823;28;20049;-74
2024/03/31 11:08:46;;;;;;;1.48;1.05;;;;;;;;;;5018741;28;20033;-77
2024/03/31 11:11:12;;;;;;;0.85;0.85;;;;;;;;;;5021211;28;20038;-77
2024/03/31 11:13:38;;;;;;;2.25;2.05;;;;;;;;;;5018513;28;20041;-78
2024/03/31 11:16:05;;;;;;;2.28;1.40;;;;;;;;;;5018606;28;21241;-76
2024/03/31 11:18:30;;;;;;;1.17;1.08;;;;;;;;;;5014877;28;20052;-77
2024/03/31 11:21:06;;;;;;;0.85;0.80;;;;;;;;;;5020007;28;20029;-74
2024/03/31 11:23:31;;;;;;;0.73;0.32;;;;;;;;;;5020816;28;20023;-77
2024/03/31 11:26:00;;;;;;;0.35;0.35;;;;;;;;;;5023458;28;20037;-79
2024/03/31 11:28:27;;;;;;;1.17;1.08;;;;;;;;;;5020488;28;20124;-77
2024/03/31 11:30:52;;;;;;;7.03;1.55;;;;;;;;;;5020351;28;20072;-76
2024/03/31 11:33:18;;;;;;;4.53;1.70;;;;;;;;;;5019071;28;20081;-75
2024/03/31 11:35:44;;;;;;;1.58;0.63;;;;;;;;;;5024042;28;20473;-76
2024/03/31 11:38:12;;;;;;;3.55;1.48;;;;;;;;;;5004162;28;20026;-77
2024/03/31 11:40:38;;;;;;;3.42;1.20;;;;;;;;;;5023961;28;20152;-76
2024/03/31 11:43:04;;;;;;;2.65;2.08;;;;;;;;;;5020502;28;20468;-76
2024/03/31 11:45:30;;;;;;;0.32;0.32;;;;;;;;;;5000055;28;20076;-76
2024/03/31 11:47:55;;;;;;;0.40;0.40;;;;;;;;;;5021192;28;20041;-76
2024/03/31 11:50:21;;;;;;;0.17;0.17;;;;;;;;;;5018432;28;20065;-75
2024/03/31 11:52:47;;;;;;;0.75;0.65;;;;;;;;;;5017423;28;20037;-76
2024/03/31 11:55:13;;;;;;;0.80;0.63;;;;;;;;;;5022436;28;20075;-75
2024/03/31 11:57:38;;;;;;;1.98;1.55;;;;;;;;;;5023258;28;20084;-77
2024/03/31 12:00:03;;;;;;;0.47;0.47;;;;;;;;;;5021769;28;20474;-76
2024/03/31 12:02:29;;;;;;;1.38;1.27;;;;;;;;;;5023133;28;20036;-74
2024/03/31 12:04:54;;;;;;;0.22;0.22;;;;;;;;;;5019509;28;20060;-72
2024/03/31 12:07:20;;;;;;;1.40;1.23;;;;;;;;;;5017716;28;20049;-77
2024/03/31 12:09:46;;;;;;;2.72;1.65;;;;;;;;;;5022888;28;20038;-74
2024/03/31 12:12:11;;;;;;;0.55;0.55;;;;;;;;;;5016210;28;20042;-75
2024/03/31 12:14:37;;;;;;;0.20;0.20;;;;;;;;;;5020855;28;20021;-72
2024/03/31 12:17:03;;;;;;;1.38;1.17;;;;;;;;;;5003692;28;20505;-72
2024/03/31 12:19:29;;;;;;;0.20;0.20;;;;;;;;;;5019731;28;20051;-74
2024/03/31 12:21:54;;;;;;;1.50;1.40;;;;;;;;;;5021560;28;20053;-73
2024/03/31 12:24:20;;;;;;;1.77;1.33;;;;;;;;;;5016763;28;20152;-73
2024/03/31 12:26:46;;;;;;;2.78;1.20;;;;;;;;;;5019109;28;20445;-74
2024/03/31 12:29:20;;;;;;;1.00;0.50;;;;;;;;;;5027585;28;20734;-77
2024/03/31 12:31:46;;;;;;;2.15;1.77;;;;;;;;;;5024871;28;20642;-76
2024/03/31 12:34:13;;;;;;;2.15;0.82;;;;;;;;;;5020864;28;20041;-75
2024/03/31 12:36:38;;;;;;;1.00;0.93;;;;;;;;;;5018053;28;20071;-75
2024/03/31 12:39:04;;;;;;;0.45;0.45;;;;;;;;;;5015589;28;20037;-73
2024/03/31 12:41:30;;;;;;;0.60;0.60;;;;;;;;;;5017463;28;20125;-74
2024/03/31 12:44:06;;;;;;;0.40;0.30;;;;;;;;;;5022920;28;20029;-73
2024/03/31 12:46:32;;;;;;;1.10;0.90;;;;;;;;;;5022321;28;20083;-73
2024/03/31 12:48:57;;;;;;;0.65;0.60;;;;;;;;;;5009213;28;20041;-74
2024/03/31 12:51:23;;;;;;;0.28;0.28;;;;;;;;;;5019944;28;20597;-75
2024/03/31 12:53:48;;;;;;;1.10;1.00;;;;;;;;;;5016836;28;20429;-72
2024/03/31 12:56:17;;;;;;;1.45;1.10;;;;;;;;;;5017740;28;20473;-72
2024/03/31 12:58:43;;;;;;;2.38;2.17;;;;;;;;;;5000161;28;20506;-73
2024/03/31 13:01:09;;;;;;;0.20;0.20;;;;;;;;;;5026011;28;20069;-73
2024/03/31 13:03:39;;;;;;;0.20;0.20;;;;;;;;;;5024728;28;20564;-74
2024/03/31 13:06:05;;;;;;;0.80;0.80;;;;;;;;;;5018511;28;20045;-73
2024/03/31 13:08:32;;;;;;;0.63;0.63;;;;;;;;;;5022902;28;20516;-73
2024/03/31 13:10:57;;;;;;;0.70;0.70;;;;;;;;;;5003257;28;20140;-73
2024/03/31 13:13:24;;;;;;;1.15;1.08;;;;;;;;;;5015592;28;20127;-74
2024/03/31 13:15:49;;;;;;;2.38;1.73;;;;;;;;;;5041173;28;20473;-73
2024/03/31 13:18:15;;;;;;;0.40;0.40;;;;;;;;;;5015985;28;20064;-75
2024/03/31 13:20:40;;;;;;;0.20;0.20;;;;;;;;;;5023448;28;20032;-78
2024/03/31 13:23:05;;;;;;;1.00;0.57;;;;;;;;;;5005082;28;20029;-74
2024/03/31 13:25:31;;;;;;;0.28;0.28;;;;;;;;;;5019818;28;20051;-75
2024/03/31 13:27:58;;;;;;;1.30;0.80;;;;;;;;;;5023519;28;20048;-75
2024/03/31 13:30:23;;;;;;;0.88;0.70;;;;;;;;;;5035901;28;20076;-75
2024/03/31 13:32:48;;;;;;;1.55;1.35;;;;;;;;;;5014785;28;20124;-75
2024/03/31 13:35:14;;;;;;;0.60;0.60;;;;;;;;;;5023698;28;20029;-72
2024/03/31 13:37:39;;;;;;;2.13;1.38;;;;;;;;;;5023154;28;20148;-73
2024/03/31 13:40:05;;;;;;;3.65;1.27;;;;;;;;;;5020535;28;20056;-75
2024/03/31 13:42:31;;;;;;;0.52;0.52;;;;;;;;;;5029639;28;20265;-75
2024/03/31 13:44:56;;;;;;;0.30;0.30;;;;;;;;;;4998589;28;20451;-76
2024/03/31 13:47:22;;;;;;;0.35;0.25;;;;;;;;;;5020314;28;20038;-72
2024/03/31 13:49:47;;;;;;;0.22;0.22;;;;;;;;;;5024995;28;20568;-73
2024/03/31 13:52:13;;;;;;;0.80;0.80;;;;;;;;;;5006529;28;20048;-72
2024/03/31 13:54:38;;;;;;;1.80;0.82;;;;;;;;;;5024767;28;20544;-74
2024/03/31 13:57:04;;;;;;;5.45;1.75;;;;;;;;;;5018848;28;20034;-73
2024/03/31 13:59:29;;;;;;;1.95;1.67;;;;;;;;;;5012045;28;20041;-74
2024/03/31 14:01:54;;;;;;;1.58;1.30;;;;;;;;;;5021839;28;20029;-73
2024/03/31 14:04:20;;;;;;;2.05;1.33;;;;;;;;;;5021640;28;20509;-72
2024/03/31 14:06:45;;;;;;;0.98;0.70;;;;;;;;;;5006054;28;20050;-73
2024/03/31 14:09:11;;;;;;;0.70;0.65;;;;;;;;;;5023356;28;20097;-75
2024/03/31 14:11:36;;;;;;;1.23;0.85;;;;;;;;;;5023714;28;20428;-75
2024/03/31 14:14:02;;;;;;;0.70;0.70;;;;;;;;;;5026274;28;20029;-73
2024/03/31 14:16:27;;;;;;;1.65;0.73;;;;;;;;;;5021832;28;20127;-71
2024/03/31 14:18:52;;;;;;;0.73;0.73;;;;;;;;;;5025902;28;20033;-72
2024/03/31 14:21:18;;;;;;;0.75;0.75;;;;;;;;;;5019425;28;20141;-82
2024/03/31 14:23:43;;;;;;;2.75;2.53;;;;;;;;;;5020205;28;20029;-74
2024/03/31 14:26:09;;;;;;;1.85;0.77;;;;;;;;;;5003234;28;20029;-72
2024/03/31 14:28:35;;;;;;;1.75;1.10;;;;;;;;;;5021648;28;20111;-73
2024/03/31 14:31:01;;;;;;;0.68;0.68;;;;;;;;;;5017854;28;20472;-72
2024/03/31 14:33:27;;;;;;;5.63;2.33;;;;;;;;;;5023133;28;20053;-75
2024/03/31 14:35:52;;;;;;;0.30;0.30;;;;;;;;;;5022927;28;20083;-75
2024/03/31 14:38:17;;;;;;;0.75;0.57;;;;;;;;;;5023017;28;20756;-72
2024/03/31 14:40:43;;;;;;;0.45;0.43;;;;;;;;;;5022953;28;20034;-72